Time;durP1;ratioP1;P1;durP2;ratioP2;P2;SDS_P1;SDS_P2;PMS_P1;PMS_P2;Temp;Humidity;BMP_temperature;BMP_pressure;BME280_temperature;BME280_humidity;BME280_pressure;Samples;Min_cycle;Max_cycle;Signal;HPM_P1;HPM_P2
2021/07/31 00:00:41;;;;;;;9.52;8.10;;;19.70;90.50;;;;;;5021488;28;20065;-90
2021/07/31 00:03:07;;;;;;;10.02;8.80;;;19.70;90.60;;;;;;5018017;28;20025;-91
2021/07/31 00:05:33;;;;;;;10.93;9.10;;;19.70;90.70;;;;;;5017672;28;20029;-89
2021/07/31 00:07:59;;;;;;;13.35;8.77;;;19.70;90.80;;;;;;5018626;28;20026;-91
2021/07/31 00:10:26;;;;;;;9.68;8.68;;;19.60;90.90;;;;;;5015086;28;20491;-91
2021/07/31 00:12:52;;;;;;;10.18;9.00;;;19.60;91.00;;;;;;5034087;28;20048;-90
2021/07/31 00:15:18;;;;;;;11.80;7.72;;;19.60;91.00;;;;;;5057141;28;20028;-91
2021/07/31 00:17:44;;;;;;;12.45;8.57;;;19.60;91.10;;;;;;5038678;28;20021;-92
2021/07/31 00:20:10;;;;;;;9.35;8.35;;;19.60;90.80;;;;;;5056399;28;20100;-90
2021/07/31 00:22:36;;;;;;;18.15;8.10;;;19.60;90.90;;;;;;5055914;28;20048;-89
2021/07/31 00:25:02;;;;;;;12.55;8.73;;;19.50;91.00;;;;;;5059499;28;20017;-89
2021/07/31 00:27:28;;;;;;;11.90;8.65;;;19.50;91.10;;;;;;5050555;28;20024;-86
2021/07/31 00:29:54;;;;;;;17.65;9.23;;;19.50;91.20;;;;;;5059438;28;20078;-91
2021/07/31 00:32:20;;;;;;;11.05;9.13;;;19.40;91.30;;;;;;5045829;28;20021;-90
2021/07/31 00:34:46;;;;;;;13.05;8.57;;;19.40;91.30;;;;;;5057636;28;20032;-90
2021/07/31 00:37:12;;;;;;;12.20;9.68;;;19.40;91.30;;;;;;5043691;28;20474;-90
2021/07/31 00:39:40;;;;;;;13.00;8.95;;;19.30;91.40;;;;;;5039556;28;20417;-91
2021/07/31 00:42:07;;;;;;;10.32;9.10;;;19.30;91.40;;;;;;5063318;28;20036;-91
2021/07/31 00:44:34;;;;;;;12.55;8.82;;;19.30;91.50;;;;;;5049702;28;20085;-90
2021/07/31 00:47:00;;;;;;;10.25;9.18;;;19.30;91.40;;;;;;5048827;28;20047;-90
2021/07/31 00:49:27;;;;;;;11.68;8.15;;;19.30;91.40;;;;;;5069101;28;20021;-90
2021/07/31 00:51:52;;;;;;;11.20;9.50;;;19.30;91.40;;;;;;5062384;28;20013;-89
2021/07/31 00:54:19;;;;;;;10.48;8.90;;;19.30;91.40;;;;;;5062580;28;20031;-91
2021/07/31 00:56:46;;;;;;;9.38;8.48;;;19.30;91.40;;;;;;5044742;28;20090;-92
2021/07/31 00:59:12;;;;;;;8.63;7.80;;;19.30;91.60;;;;;;5050519;28;20103;-90
2021/07/31 01:01:40;;;;;;;12.45;9.43;;;19.30;91.50;;;;;;5044904;28;20478;-90
2021/07/31 01:04:06;;;;;;;10.00;8.23;;;19.30;91.90;;;;;;5064483;28;20048;-91
2021/07/31 01:06:32;;;;;;;10.93;8.68;;;19.30;91.70;;;;;;5080453;28;20013;-88
2021/07/31 01:08:58;;;;;;;11.57;7.75;;;19.30;91.80;;;;;;5079522;28;20021;-90
2021/07/31 01:11:23;;;;;;;9.43;8.43;;;19.20;91.70;;;;;;5082284;28;20032;-91
2021/07/31 01:13:50;;;;;;;11.15;8.77;;;19.20;91.80;;;;;;5058778;28;20048;-91
2021/07/31 01:16:16;;;;;;;9.38;7.97;;;19.20;91.80;;;;;;5063883;28;20425;-90
2021/07/31 01:18:42;;;;;;;11.88;9.02;;;19.20;91.80;;;;;;5065041;28;20029;-89
2021/07/31 01:21:08;;;;;;;16.75;8.68;;;19.10;91.70;;;;;;5062091;28;20037;-89
2021/07/31 01:23:34;;;;;;;12.13;7.50;;;19.20;91.80;;;;;;5070004;28;20017;-90
2021/07/31 01:26:00;;;;;;;11.88;7.45;;;19.10;91.90;;;;;;5073771;28;20025;-89
2021/07/31 01:28:26;;;;;;;11.77;8.20;;;19.10;91.90;;;;;;5056549;28;20071;-90
2021/07/31 01:30:52;;;;;;;10.95;7.78;;;19.10;92.00;;;;;;5067757;28;20063;-90
2021/07/31 01:33:18;;;;;;;12.27;8.52;;;19.00;91.90;;;;;;5068750;28;20084;-91
2021/07/31 01:35:44;;;;;;;9.55;8.60;;;19.00;91.90;;;;;;5066510;28;20118;-91
2021/07/31 01:38:10;;;;;;;10.38;8.55;;;19.00;91.90;;;;;;5044762;28;20047;-92
2021/07/31 01:40:35;;;;;;;14.77;9.65;;;19.00;91.90;;;;;;5054711;28;20036;-89
2021/07/31 01:43:01;;;;;;;14.88;8.48;;;19.00;91.90;;;;;;5047153;28;20022;-89
2021/07/31 01:45:27;;;;;;;11.73;9.00;;;19.00;91.90;;;;;;5078711;28;20029;-87
2021/07/31 01:47:53;;;;;;;10.15;8.05;;;19.00;91.90;;;;;;5062847;28;20136;-91
2021/07/31 01:50:20;;;;;;;10.07;7.85;;;19.00;91.80;;;;;;5040604;28;20069;-89
2021/07/31 01:52:46;;;;;;;11.55;7.82;;;19.00;91.80;;;;;;5054636;28;20061;-90
2021/07/31 01:55:13;;;;;;;9.32;8.25;;;19.00;91.90;;;;;;5062874;28;20036;-90
2021/07/31 01:57:39;;;;;;;9.23;7.40;;;19.00;91.90;;;;;;5052226;28;20100;-89
2021/07/31 02:00:06;;;;;;;10.60;7.78;;;19.00;91.80;;;;;;5054971;28;20029;-90
2021/07/31 02:02:33;;;;;;;9.95;7.50;;;19.00;91.80;;;;;;5060566;28;20107;-90
2021/07/31 02:04:58;;;;;;;9.80;7.78;;;19.00;91.70;;;;;;5060656;28;20475;-91
2021/07/31 02:07:24;;;;;;;14.77;8.90;;;19.00;91.60;;;;;;5058812;28;20025;-90
2021/07/31 02:09:50;;;;;;;9.35;7.82;;;19.00;91.60;;;;;;5059329;28;20017;-89
2021/07/31 02:12:16;;;;;;;12.40;7.63;;;19.00;91.60;;;;;;5028600;28;20057;-91
2021/07/31 02:14:42;;;;;;;11.98;7.93;;;19.10;91.60;;;;;;5059447;28;20025;-90
2021/07/31 02:17:08;;;;;;;12.43;9.02;;;19.10;91.70;;;;;;5059491;28;20456;-90
2021/07/31 02:19:34;;;;;;;10.98;7.68;;;19.10;91.70;;;;;;5060237;28;20024;-89
2021/07/31 02:22:00;;;;;;;11.80;8.63;;;19.20;91.70;;;;;;5063200;28;20032;-90
2021/07/31 02:24:26;;;;;;;9.05;7.45;;;19.10;91.80;;;;;;5065619;28;20084;-90
2021/07/31 02:26:52;;;;;;;8.18;7.38;;;19.20;91.70;;;;;;5053917;28;20032;-89
2021/07/31 02:29:18;;;;;;;9.18;8.15;;;19.20;91.70;;;;;;5070853;28;20032;-90
2021/07/31 02:31:44;;;;;;;9.85;8.32;;;19.20;91.60;;;;;;5068387;28;20033;-88
2021/07/31 02:34:10;;;;;;;9.77;7.50;;;19.30;91.60;;;;;;5060793;28;20037;-89
2021/07/31 02:36:36;;;;;;;10.32;7.65;;;19.30;91.80;;;;;;5037532;28;20026;-91
2021/07/31 02:39:03;;;;;;;11.50;8.27;;;19.30;91.30;;;;;;5031100;28;20029;-89
2021/07/31 02:41:29;;;;;;;7.93;6.78;;;19.40;91.20;;;;;;5041190;28;20041;-91
2021/07/31 02:43:55;;;;;;;8.88;7.32;;;19.40;91.00;;;;;;5058056;28;20025;-91
2021/07/31 02:46:20;;;;;;;11.70;7.82;;;19.50;91.00;;;;;;5059637;28;20044;-90
2021/07/31 02:48:46;;;;;;;15.00;8.18;;;19.60;90.90;;;;;;5060448;28;20021;-89
2021/07/31 02:51:13;;;;;;;7.78;7.07;;;19.60;90.80;;;;;;5069969;28;20043;-89
2021/07/31 02:53:40;;;;;;;9.82;7.47;;;19.70;90.50;;;;;;5063444;28;20028;-91
2021/07/31 02:56:06;;;;;;;10.90;7.47;;;19.80;90.10;;;;;;5055721;28;20037;-89
2021/07/31 02:58:33;;;;;;;7.57;6.72;;;19.90;90.00;;;;;;5058575;28;20025;-91
2021/07/31 03:01:08;;;;;;;12.57;7.03;;;20.00;89.40;;;;;;5037623;28;20070;-90
2021/07/31 03:03:34;;;;;;;12.88;7.05;;;20.10;88.90;;;;;;5041676;28;20030;-90
2021/07/31 03:06:01;;;;;;;9.55;7.38;;;20.10;88.20;;;;;;5059329;28;20032;-90
2021/07/31 03:08:28;;;;;;;11.13;7.20;;;20.20;87.80;;;;;;5058757;28;20036;-90
2021/07/31 03:10:55;;;;;;;9.13;7.10;;;20.30;87.90;;;;;;5038056;28;20029;-89
2021/07/31 03:13:21;;;;;;;8.63;7.32;;;20.30;87.50;;;;;;5045762;28;20387;-89
2021/07/31 03:15:47;;;;;;;7.57;6.53;;;20.30;87.00;;;;;;5037129;28;20029;-90
2021/07/31 03:18:13;;;;;;;7.93;6.53;;;20.30;87.20;;;;;;5061615;28;20040;-88
2021/07/31 03:20:47;;;;;;;9.20;7.35;;;20.40;86.70;;;;;;5059898;28;20068;-89
2021/07/31 03:23:18;;;;;;;7.20;6.40;;;20.40;85.90;;;;;;5061434;28;20020;-90
2021/07/31 03:25:44;;;;;;;9.57;7.05;;;20.50;85.90;;;;;;5058483;28;20048;-89
2021/07/31 03:28:11;;;;;;;9.05;6.40;;;20.50;85.20;;;;;;5064835;28;20087;-90
2021/07/31 03:30:45;;;;;;;10.77;6.60;;;20.50;84.40;;;;;;5077248;28;20051;-89
2021/07/31 03:33:12;;;;;;;9.25;6.63;;;20.50;83.50;;;;;;5074128;28;20031;-92
2021/07/31 03:35:39;;;;;;;10.68;6.60;;;20.40;84.00;;;;;;5064449;28;20504;-92
2021/07/31 03:38:05;;;;;;;12.48;7.28;;;20.50;83.60;;;;;;5058115;28;20017;-89
2021/07/31 03:40:31;;;;;;;7.82;6.28;;;20.50;83.10;;;;;;5039466;28;20478;-91
2021/07/31 03:42:57;;;;;;;8.45;6.70;;;20.50;83.10;;;;;;5039452;28;20098;-92
2021/07/31 03:45:24;;;;;;;8.70;6.75;;;20.60;83.40;;;;;;5057055;28;20099;-90
2021/07/31 03:47:49;;;;;;;7.03;6.32;;;20.70;82.60;;;;;;5040979;28;20088;-89
2021/07/31 03:50:16;;;;;;;9.68;6.65;;;20.80;82.40;;;;;;5067420;28;20013;-90
2021/07/31 03:52:41;;;;;;;7.85;6.80;;;20.80;81.90;;;;;;5065437;28;20024;-90
2021/07/31 03:55:08;;;;;;;10.07;6.57;;;20.80;82.30;;;;;;5044479;28;20040;-89
2021/07/31 03:57:34;;;;;;;9.00;6.23;;;20.90;82.20;;;;;;5045953;28;20025;-92
2021/07/31 04:00:01;;;;;;;6.53;5.93;;;20.90;81.50;;;;;;5057614;28;20037;-89
2021/07/31 04:02:27;;;;;;;12.13;6.72;;;21.00;80.50;;;;;;5056427;28;20017;-90
2021/07/31 04:04:53;;;;;;;9.20;5.97;;;21.10;79.80;;;;;;5060074;28;20047;-90
2021/07/31 04:07:19;;;;;;;10.98;6.85;;;21.10;80.20;;;;;;5054572;28;20005;-90
2021/07/31 04:09:44;;;;;;;7.50;5.95;;;21.20;79.70;;;;;;5060754;28;20029;-89
2021/07/31 04:12:10;;;;;;;8.55;6.55;;;21.30;79.90;;;;;;5057178;28;20041;-90
2021/07/31 04:14:36;;;;;;;7.32;6.55;;;21.30;79.40;;;;;;5059695;28;20429;-90
2021/07/31 04:17:02;;;;;;;10.10;6.25;;;21.30;77.90;;;;;;5055624;28;20092;-91
2021/07/31 04:19:28;;;;;;;6.72;5.43;;;21.40;77.90;;;;;;5038308;28;20505;-91
2021/07/31 04:21:56;;;;;;;8.98;5.55;;;21.40;77.70;;;;;;5038294;28;20041;-90
2021/07/31 04:24:26;;;;;;;7.40;6.20;;;21.50;77.20;;;;;;5056017;28;20478;-90
2021/07/31 04:26:52;;;;;;;9.93;6.60;;;21.60;77.30;;;;;;5056450;28;20029;-91
2021/07/31 04:29:19;;;;;;;9.25;6.15;;;21.70;76.90;;;;;;5039976;28;20040;-90
2021/07/31 04:31:45;;;;;;;8.20;6.07;;;21.70;76.80;;;;;;5058615;28;20025;-89
2021/07/31 04:34:11;;;;;;;7.53;5.93;;;21.80;75.80;;;;;;5049861;28;20009;-89
2021/07/31 04:36:38;;;;;;;11.38;6.22;;;21.80;76.10;;;;;;5074839;28;20265;-90
2021/07/31 04:39:05;;;;;;;10.20;7.10;;;21.90;76.00;;;;;;5054910;28;20053;-89
2021/07/31 04:41:31;;;;;;;9.98;6.85;;;22.10;75.90;;;;;;5058893;28;20043;-92
2021/07/31 04:43:57;;;;;;;10.13;6.80;;;22.10;75.50;;;;;;5037955;28;20417;-90
2021/07/31 04:46:23;;;;;;;7.78;6.35;;;22.20;74.90;;;;;;5057764;28;20021;-91
2021/07/31 04:48:49;;;;;;;11.02;6.75;;;22.20;74.70;;;;;;5056909;28;20029;-89
2021/07/31 04:51:15;;;;;;;7.75;6.32;;;22.40;74.30;;;;;;5057904;28;20029;-90
2021/07/31 04:53:41;;;;;;;11.07;6.65;;;22.40;73.60;;;;;;5065263;28;20017;-89
2021/07/31 04:56:07;;;;;;;9.27;6.07;;;22.60;73.50;;;;;;5060920;28;20094;-91
2021/07/31 04:58:33;;;;;;;9.13;6.43;;;22.60;72.60;;;;;;5039639;28;20024;-91
2021/07/31 05:01:01;;;;;;;13.07;6.25;;;22.70;72.40;;;;;;5049676;28;20040;-91
2021/07/31 05:03:28;;;;;;;11.18;6.57;;;23.10;71.90;;;;;;5049168;28;20028;-89
2021/07/31 05:05:55;;;;;;;9.30;6.15;;;23.80;69.60;;;;;;5059561;28;20520;-92
2021/07/31 05:08:21;;;;;;;7.95;6.35;;;24.60;67.40;;;;;;5057860;28;20025;-90
2021/07/31 05:10:49;;;;;;;6.50;5.63;;;25.30;64.90;;;;;;5057534;28;20385;-91
2021/07/31 05:13:15;;;;;;;7.30;5.13;;;26.30;61.70;;;;;;5059282;28;20067;-91
2021/07/31 05:15:44;;;;;;;7.45;5.15;;;27.10;58.90;;;;;;5056010;28;20029;-90
2021/07/31 05:18:11;;;;;;;7.30;5.57;;;27.80;57.20;;;;;;5041097;28;20063;-90
2021/07/31 05:20:44;;;;;;;;;;;28.20;55.40;;;;;;5065166;28;20036;-89
2021/07/31 05:23:10;;;;;;;6.15;5.10;;;28.80;56.60;;;;;;5064801;28;19912;-92
2021/07/31 05:25:37;;;;;;;7.80;5.47;;;29.40;52.90;;;;;;5059014;28;20025;-91
2021/07/31 05:28:03;;;;;;;7.22;6.03;;;30.00;51.20;;;;;;5040473;28;20044;-90
2021/07/31 05:30:29;;;;;;;7.90;4.73;;;30.20;49.90;;;;;;5059933;28;20024;-90
2021/07/31 05:32:55;;;;;;;6.32;4.85;;;;;;;;;;5056562;28;20270;-90
2021/07/31 05:35:21;;;;;;;8.20;5.23;;;30.40;49.40;;;;;;5058869;28;20021;-90
2021/07/31 05:37:47;;;;;;;8.73;5.50;;;31.40;47.30;;;;;;5051506;28;20021;-90
2021/07/31 05:40:13;;;;;;;6.95;5.13;;;;;;;;;;5059459;28;20029;-91
2021/07/31 05:42:40;;;;;;;6.38;4.75;;;;;;;;;;5054948;28;20033;-88
2021/07/31 05:45:06;;;;;;;6.60;4.45;;;31.40;46.00;;;;;;5075737;28;20088;-87
2021/07/31 05:47:33;;;;;;;6.55;5.70;;;31.90;45.80;;;;;;5059367;28;20014;-90
2021/07/31 05:50:03;;;;;;;8.23;5.63;;;32.70;44.30;;;;;;5071683;28;20044;-88
2021/07/31 05:52:31;;;;;;;5.65;4.70;;;;;;;;;;5079272;28;20033;-90
2021/07/31 05:54:57;;;;;;;;;;;33.00;43.40;;;;;;5074539;28;20435;-93
2021/07/31 05:57:23;;;;;;;9.38;4.82;;;32.90;44.40;;;;;;5067274;28;19912;-90
2021/07/31 05:59:49;;;;;;;7.97;4.97;;;33.40;42.60;;;;;;5067403;28;20033;-89
2021/07/31 06:02:15;;;;;;;12.65;4.65;;;33.80;41.50;;;;;;5041218;28;20025;-88
2021/07/31 06:04:41;;;;;;;9.38;5.40;;;;;;;;;;5058990;28;20032;-89
2021/07/31 06:07:08;;;;;;;5.75;4.93;;;33.90;41.30;;;;;;5061134;28;20048;-90
2021/07/31 06:09:35;;;;;;;5.90;4.15;;;;;;;;;;5064311;28;20064;-92
2021/07/31 06:12:02;;;;;;;6.90;4.82;;;35.20;38.60;;;;;;5057835;28;20025;-90
2021/07/31 06:14:28;;;;;;;9.48;4.82;;;35.90;38.50;;;;;;5058491;28;20117;-90
2021/07/31 06:16:54;;;;;;;9.48;5.00;;;36.10;38.00;;;;;;5059786;28;20036;-91
2021/07/31 06:19:21;;;;;;;8.13;4.47;;;36.90;37.60;;;;;;5043862;28;20025;-89
2021/07/31 06:21:47;;;;;;;6.63;5.20;;;37.20;36.30;;;;;;5063419;28;20044;-92
2021/07/31 06:24:13;;;;;;;8.35;4.97;;;37.60;36.20;;;;;;5060113;28;20025;-90
2021/07/31 06:26:39;;;;;;;6.53;4.80;;;38.40;35.70;;;;;;5046205;28;20033;-89
2021/07/31 06:29:05;;;;;;;7.25;4.75;;;38.80;34.80;;;;;;5062532;28;20025;-90
2021/07/31 06:31:31;;;;;;;8.80;4.30;;;39.30;34.50;;;;;;5061489;28;20029;-89
2021/07/31 06:33:59;;;;;;;6.35;4.10;;;39.50;33.70;;;;;;5062326;28;20057;-89
2021/07/31 06:36:25;;;;;;;7.82;4.50;;;39.00;33.40;;;;;;5065931;28;20386;-89
2021/07/31 06:38:51;;;;;;;5.88;4.13;;;38.10;33.40;;;;;;5053695;28;20024;-89
2021/07/31 06:41:17;;;;;;;7.60;4.10;;;37.40;34.70;;;;;;5060417;28;20048;-90
2021/07/31 06:43:43;;;;;;;7.57;3.85;;;38.10;34.40;;;;;;5065657;28;20059;-91
2021/07/31 06:46:13;;;;;;;6.70;4.15;;;38.50;34.10;;;;;;5068077;28;20104;-91
2021/07/31 06:48:40;;;;;;;7.82;3.60;;;39.00;33.80;;;;;;5048666;28;20482;-90
2021/07/31 06:51:05;;;;;;;;;;;38.30;34.10;;;;;;5069893;28;20044;-91
2021/07/31 06:53:31;;;;;;;8.95;4.63;;;37.80;35.30;;;;;;5057606;28;19907;-90
2021/07/31 06:56:01;;;;;;;9.20;5.13;;;36.90;35.60;;;;;;5070783;28;20021;-92
2021/07/31 06:58:27;;;;;;;6.85;3.85;;;36.80;35.40;;;;;;5055414;28;20265;-89
2021/07/31 07:00:53;;;;;;;9.20;4.28;;;36.80;34.20;;;;;;5068122;28;20029;-89
2021/07/31 07:03:20;;;;;;;8.82;3.78;;;36.20;34.80;;;;;;5067779;28;20479;-88
2021/07/31 07:05:46;;;;;;;;;;;36.80;34.80;;;;;;5048005;28;20378;-91
2021/07/31 07:08:12;;;;;;;4.75;3.85;;;37.50;34.90;;;;;;5055229;28;19911;-90
2021/07/31 07:10:38;;;;;;;5.55;4.18;;;37.60;32.70;;;;;;5042342;28;20029;-91
2021/07/31 07:13:04;;;;;;;6.10;3.90;;;37.60;33.40;;;;;;5058801;28;20051;-91
2021/07/31 07:15:31;;;;;;;6.55;3.60;;;38.30;33.00;;;;;;5059599;28;20025;-93
2021/07/31 07:17:57;;;;;;;6.25;3.55;;;38.70;31.90;;;;;;5064468;28;20009;-91
2021/07/31 07:20:25;;;;;;;6.32;3.42;;;38.90;31.40;;;;;;5070297;28;20029;-93
2021/07/31 07:22:51;;;;;;;6.20;3.38;;;39.50;30.80;;;;;;5041993;28;20079;-91
2021/07/31 07:25:17;;;;;;;;;;;39.80;30.20;;;;;;5039861;28;20024;-91
2021/07/31 07:27:42;;;;;;;8.25;4.20;;;40.20;31.60;;;;;;5041168;28;19990;-91
2021/07/31 07:30:16;;;;;;;4.45;3.67;;;40.40;29.80;;;;;;5041860;28;20050;-91
2021/07/31 07:32:42;;;;;;;5.75;3.10;;;39.80;29.90;;;;;;5057588;28;20025;-92
2021/07/31 07:35:08;;;;;;;6.97;3.67;;;39.30;30.60;;;;;;5030068;28;20024;-89
2021/07/31 07:37:34;;;;;;;;;;;40.20;30.00;;;;;;5062344;28;20103;-89
2021/07/31 07:40:00;;;;;;;4.88;3.28;;;41.20;30.50;;;;;;5039779;28;19966;-90
2021/07/31 07:42:25;;;;;;;9.50;3.17;;;41.80;28.80;;;;;;5059250;28;20025;-94
2021/07/31 07:44:52;;;;;;;6.13;2.95;;;42.40;28.10;;;;;;5059687;28;20036;-91
2021/07/31 07:47:18;;;;;;;6.13;3.00;;;43.30;27.70;;;;;;5041003;28;20029;-93
2021/07/31 07:49:44;;;;;;;3.97;3.38;;;44.50;27.60;;;;;;5037243;28;20025;-92
2021/07/31 07:52:10;;;;;;;4.45;2.70;;;44.90;26.60;;;;;;5060931;28;20478;-92
2021/07/31 07:54:35;;;;;;;;;;;43.90;26.00;;;;;;5044570;28;20045;-93
2021/07/31 07:57:05;;;;;;;2.70;2.42;;;43.10;27.70;;;;;;5041856;28;19889;-94
2021/07/31 07:59:33;;;;;;;4.18;2.60;;;43.00;26.80;;;;;;5061192;28;20125;-93
2021/07/31 08:01:59;;;;;;;8.70;2.88;;;42.90;26.10;;;;;;5074241;28;20108;-91
2021/07/31 08:04:24;;;;;;;;;;;42.10;26.20;;;;;;5073103;28;20234;-90
2021/07/31 08:06:50;;;;;;;6.03;3.05;;;40.40;27.90;;;;;;5033642;28;19909;-93
2021/07/31 08:09:16;;;;;;;4.22;2.85;;;39.50;27.70;;;;;;5059048;28;20363;-92
2021/07/31 08:11:43;;;;;;;6.45;2.97;;;39.60;28.30;;;;;;5072041;28;20013;-89
2021/07/31 08:14:10;;;;;;;5.88;2.97;;;39.60;28.30;;;;;;5074861;28;20131;-91
2021/07/31 08:16:37;;;;;;;4.35;3.03;;;39.50;27.80;;;;;;5068081;28;20025;-91
2021/07/31 08:19:32;;;;;;;9.27;3.25;;;38.10;28.20;;;;;;5040304;28;20037;-92
2021/07/31 08:21:58;;;;;;;7.55;2.95;;;38.20;29.40;;;;;;5033244;28;20441;-91
2021/07/31 08:24:24;;;;;;;9.00;3.45;;;37.80;28.60;;;;;;5043389;28;20024;-93
2021/07/31 08:26:50;;;;;;;5.72;3.42;;;37.80;29.50;;;;;;5057685;28;20557;-93
2021/07/31 08:29:16;;;;;;;5.22;3.30;;;39.30;28.70;;;;;;5058432;28;20055;-93
2021/07/31 08:31:49;;;;;;;10.48;3.50;;;40.20;28.40;;;;;;5057825;28;20033;-92
2021/07/31 08:34:16;;;;;;;7.00;3.03;;;41.00;27.70;;;;;;5049436;28;20033;-91
2021/07/31 08:36:42;;;;;;;5.15;3.15;;;40.50;27.00;;;;;;5047848;28;20093;-90
2021/07/31 08:39:08;;;;;;;9.25;2.90;;;39.50;27.30;;;;;;5062117;28;20116;-90
2021/07/31 08:41:34;;;;;;;6.45;3.08;;;38.90;28.10;;;;;;5075351;28;20021;-90
2021/07/31 08:44:02;;;;;;;8.10;3.35;;;39.20;28.10;;;;;;5055471;28;20056;-91
2021/07/31 08:46:29;;;;;;;8.40;3.97;;;39.10;28.00;;;;;;5064490;28;20025;-92
2021/07/31 08:48:57;;;;;;;9.93;3.70;;;37.60;28.40;;;;;;5057044;28;20123;-89
2021/07/31 08:51:25;;;;;;;5.68;3.65;;;35.50;29.80;;;;;;5076512;28;20009;-92
2021/07/31 08:53:56;;;;;;;7.20;3.35;;;33.80;32.20;;;;;;5063011;28;20014;-92
2021/07/31 08:56:22;;;;;;;8.40;3.33;;;33.10;33.20;;;;;;5045019;28;20417;-93
2021/07/31 08:58:47;;;;;;;5.03;3.57;;;33.70;33.50;;;;;;5069229;28;20017;-90
2021/07/31 09:01:13;;;;;;;11.97;3.90;;;35.60;32.20;;;;;;5051855;28;20044;-89
2021/07/31 09:03:47;;;;;;;6.53;3.40;;;37.30;30.50;;;;;;5066323;28;20273;-91
2021/07/31 09:06:31;;;;;;;9.15;4.05;;;38.00;29.70;;;;;;5062793;28;20033;-92
2021/07/31 09:08:59;;;;;;;6.13;3.17;;;39.20;29.70;;;;;;5062499;28;20028;-91
2021/07/31 09:11:29;;;;;;;5.78;3.40;;;40.90;28.60;;;;;;5061842;28;20100;-91
2021/07/31 09:14:15;;;;;;;7.53;3.10;;;41.10;27.80;;;;;;5023267;28;20049;-92
2021/07/31 09:16:43;;;;;;;6.35;2.97;;;40.40;27.60;;;;;;5023682;28;20057;-94
2021/07/31 09:19:14;;;;;;;5.13;2.97;;;39.70;27.50;;;;;;5020979;28;20041;-90
2021/07/31 09:21:41;;;;;;;9.07;2.88;;;39.20;27.80;;;;;;5007109;28;20038;-90
2021/07/31 09:24:18;;;;;;;9.55;3.67;;;39.30;27.60;;;;;;5023262;28;20026;-92
2021/07/31 09:26:49;;;;;;;9.57;3.03;;;38.00;28.20;;;;;;5021528;28;20076;-91
2021/07/31 09:29:19;;;;;;;5.03;3.45;;;35.90;29.10;;;;;;5024051;28;20022;-92
2021/07/31 09:31:45;;;;;;;7.45;3.47;;;35.10;30.80;;;;;;5021288;28;20026;-92
2021/07/31 09:34:43;;;;;;;4.87;3.23;;;34.80;31.50;;;;;;5021100;28;20164;-92
2021/07/31 09:37:14;;;;;;;8.65;3.88;;;35.60;31.30;;;;;;5039258;28;20040;-91
2021/07/31 09:39:54;;;;;;;7.88;3.53;;;34.70;31.20;;;;;;5033086;28;20030;-92
2021/07/31 09:42:28;;;;;;;6.68;3.22;;;34.70;31.70;;;;;;5023158;28;20034;-90
2021/07/31 09:44:55;;;;;;;4.97;2.97;;;34.40;32.70;;;;;;5020427;28;20029;-90
2021/07/31 09:47:21;;;;;;;4.60;3.25;;;35.20;31.90;;;;;;5017643;28;20033;-90
2021/07/31 09:49:47;;;;;;;8.93;3.10;;;35.60;31.40;;;;;;5016917;28;20018;-92
2021/07/31 09:52:23;;;;;;;6.00;3.42;;;35.10;31.50;;;;;;5035978;28;20033;-92
2021/07/31 09:54:50;;;;;;;6.10;3.97;;;34.80;31.30;;;;;;5019577;28;20422;-92
2021/07/31 09:57:16;;;;;;;3.63;2.90;;;33.90;32.40;;;;;;5021097;28;20505;-90
2021/07/31 09:59:47;;;;;;;6.60;3.47;;;33.50;33.60;;;;;;5019695;28;20045;-90
2021/07/31 10:02:21;;;;;;;5.15;3.05;;;33.10;33.50;;;;;;5020017;28;20401;-91
2021/07/31 10:04:50;;;;;;;6.82;3.45;;;33.00;34.20;;;;;;5019956;28;20034;-92
2021/07/31 10:07:17;;;;;;;5.60;2.60;;;33.10;34.00;;;;;;5024736;28;20014;-89
2021/07/31 10:09:50;;;;;;;7.95;3.13;;;33.00;32.40;;;;;;5035970;28;20018;-90
2021/07/31 10:12:24;;;;;;;5.88;2.97;;;32.30;33.60;;;;;;5035498;28;20013;-87
2021/07/31 10:14:50;;;;;;;8.27;3.67;;;32.90;33.60;;;;;;5072259;28;20055;-91
2021/07/31 10:17:17;;;;;;;3.85;3.10;;;32.80;32.60;;;;;;5067110;28;20025;-92
2021/07/31 10:19:46;;;;;;;3.88;3.15;;;33.50;32.90;;;;;;5061822;28;20144;-90
2021/07/31 10:22:14;;;;;;;3.67;2.80;;;34.50;31.50;;;;;;5068492;28;20036;-90
2021/07/31 10:24:59;;;;;;;4.28;2.85;;;35.10;31.10;;;;;;5075219;28;20009;-91
2021/07/31 10:27:25;;;;;;;4.50;2.95;;;35.60;30.80;;;;;;5043870;28;20419;-91
2021/07/31 10:29:52;;;;;;;6.65;3.33;;;35.50;30.50;;;;;;5043365;28;20044;-89
2021/07/31 10:32:21;;;;;;;4.75;2.88;;;36.10;30.90;;;;;;5045054;28;20395;-89
2021/07/31 10:34:48;;;;;;;8.20;3.13;;;35.90;29.90;;;;;;5064437;28;20033;-90
2021/07/31 10:37:29;;;;;;;;;;;34.40;31.30;;;;;;5058509;28;20013;-91
2021/07/31 10:39:57;;;;;;;6.30;3.42;;;32.30;32.80;;;;;;5079290;28;19893;-90
2021/07/31 10:42:24;;;;;;;7.00;3.40;;;30.90;36.30;;;;;;5077550;28;20064;-91
2021/07/31 10:45:22;;;;;;;5.53;3.08;;;30.30;37.90;;;;;;5070147;28;20017;-91
2021/07/31 10:47:52;;;;;;;10.52;4.28;;;29.90;37.60;;;;;;5052788;28;20101;-92
2021/07/31 10:50:45;;;;;;;4.63;3.28;;;29.60;37.60;;;;;;5063746;28;20284;-91
2021/07/31 10:53:14;;;;;;;6.13;3.30;;;29.20;37.60;;;;;;4979060;28;20031;-92
2021/07/31 10:55:42;;;;;;;5.28;3.30;;;28.90;38.60;;;;;;4979607;28;20026;-92
2021/07/31 10:58:10;;;;;;;6.15;3.78;;;28.80;38.70;;;;;;4991556;28;20085;-89
2021/07/31 11:00:50;;;;;;;7.88;3.35;;;28.50;39.40;;;;;;4967026;28;20053;-92
2021/07/31 11:03:22;;;;;;;9.35;4.80;;;28.50;40.40;;;;;;4984071;28;20022;-93
2021/07/31 11:06:08;;;;;;;3.85;2.88;;;28.50;40.60;;;;;;5004174;28;20034;-92
2021/07/31 11:08:55;;;;;;;5.95;2.75;;;28.40;39.80;;;;;;4948237;29;20133;-92
2021/07/31 11:11:26;;;;;;;5.95;3.63;;;28.20;38.90;;;;;;4943881;29;20064;-92
2021/07/31 11:13:53;;;;;;;6.55;3.83;;;28.00;39.30;;;;;;4925590;29;20063;-92
2021/07/31 11:16:21;;;;;;;8.60;3.67;;;27.60;40.50;;;;;;4927141;29;20084;-94
2021/07/31 11:18:49;;;;;;;10.30;3.83;;;27.50;40.10;;;;;;4947070;28;20027;-91
2021/07/31 11:21:26;;;;;;;6.40;3.15;;;27.40;40.00;;;;;;4947518;29;20068;-92
2021/07/31 11:23:57;;;;;;;6.50;3.05;;;27.40;39.30;;;;;;4949244;29;20095;-92
2021/07/31 11:26:48;;;;;;;6.72;3.33;;;27.40;39.60;;;;;;4942053;29;20031;-92
2021/07/31 11:29:21;;;;;;;4.07;3.25;;;27.30;40.00;;;;;;4946750;28;20117;-90
2021/07/31 11:32:12;;;;;;;7.93;3.28;;;27.30;40.10;;;;;;5004424;28;20114;-91
2021/07/31 11:34:39;;;;;;;5.47;2.85;;;27.10;39.60;;;;;;4992787;28;20019;-92
2021/07/31 11:37:07;;;;;;;11.90;2.88;;;27.00;40.00;;;;;;4980261;28;20138;-90
2021/07/31 11:39:33;;;;;;;5.88;3.88;;;27.00;40.30;;;;;;4993646;28;20085;-91
2021/07/31 11:41:59;;;;;;;6.68;3.15;;;27.00;40.60;;;;;;4986342;28;20061;-93
2021/07/31 11:44:40;;;;;;;3.75;3.10;;;27.00;40.20;;;;;;4981417;28;20026;-91
2021/07/31 11:47:06;;;;;;;4.22;2.90;;;27.00;40.40;;;;;;5061797;28;20078;-91
2021/07/31 11:49:40;;;;;;;6.85;2.85;;;27.10;40.30;;;;;;5062790;28;20083;-90
2021/07/31 11:52:09;;;;;;;7.55;2.90;;;27.20;40.10;;;;;;5059097;28;20027;-92
2021/07/31 11:54:41;;;;;;;5.03;3.03;;;27.20;39.80;;;;;;5041471;28;20083;-89
2021/07/31 11:57:07;;;;;;;4.88;2.88;;;27.10;38.90;;;;;;5048160;28;20024;-90
2021/07/31 11:59:38;;;;;;;5.83;3.03;;;27.10;39.40;;;;;;5041965;28;20052;-90
2021/07/31 12:02:04;;;;;;;7.82;3.35;;;27.10;40.20;;;;;;5055317;28;20095;-91
2021/07/31 12:04:44;;;;;;;10.43;3.43;;;27.10;40.70;;;;;;5038526;28;20028;-91
2021/07/31 12:07:18;;;;;;;6.60;3.10;;;27.10;41.10;;;;;;5056522;28;20029;-91
2021/07/31 12:09:58;;;;;;;7.55;3.38;;;27.30;40.30;;;;;;5058900;28;20482;-88
2021/07/31 12:12:32;;;;;;;6.40;3.28;;;27.50;40.90;;;;;;5065573;28;20024;-91
2021/07/31 12:15:18;;;;;;;7.88;3.55;;;27.50;40.40;;;;;;5026994;28;20029;-90
2021/07/31 12:17:56;;;;;;;8.97;3.30;;;27.60;40.20;;;;;;5053769;28;20025;-91
2021/07/31 12:20:50;;;;;;;9.68;3.50;;;27.60;40.40;;;;;;5051038;28;20044;-90
2021/07/31 12:23:18;;;;;;;4.28;3.45;;;27.60;40.40;;;;;;5043391;28;20029;-90
2021/07/31 12:26:00;;;;;;;8.43;4.28;;;27.50;40.90;;;;;;5044060;28;20029;-89
2021/07/31 12:28:39;;;;;;;4.45;2.90;;;27.40;41.20;;;;;;5061227;28;20082;-90
2021/07/31 12:31:41;;;;;;;7.88;3.45;;;27.40;40.60;;;;;;5058046;28;20683;-92
2021/07/31 12:34:11;;;;;;;3.35;2.83;;;27.20;40.40;;;;;;4966736;28;20125;-90
2021/07/31 12:36:54;;;;;;;6.30;3.70;;;27.10;40.70;;;;;;4996422;28;20174;-91
2021/07/31 12:39:20;;;;;;;10.30;4.53;;;27.20;41.10;;;;;;4979824;28;20098;-92
2021/07/31 12:41:46;;;;;;;4.75;3.30;;;27.30;42.00;;;;;;4995191;28;20078;-92
2021/07/31 12:44:12;;;;;;;6.43;2.97;;;27.30;40.50;;;;;;4978724;28;20038;-91
2021/07/31 12:46:38;;;;;;;4.95;2.58;;;27.10;40.10;;;;;;4980542;28;20033;-92
2021/07/31 12:49:04;;;;;;;4.68;2.70;;;27.00;40.20;;;;;;4997143;28;20034;-91
2021/07/31 12:51:30;;;;;;;8.90;3.80;;;27.00;40.40;;;;;;4994192;28;20054;-89
2021/07/31 12:53:55;;;;;;;6.65;3.30;;;26.90;40.30;;;;;;5004105;28;20165;-90